Observation data for Brownfield on 01/16/2019      Previous  Date  Next       Current Mesonet Observations  Soil Data  Daily Summary Page  Observations in Plain Language
KBWS 160600Z 23009KT 05/03 A3014 RMK A01 T00480026  RH  087%=      5-min Rain = 0
KBWS 160605Z 24010KT 05/03 A3014 RMK A01 T00490027  RH  086%=      5-min Rain = 0
KBWS 160610Z 24010KT 05/03 A3014 RMK A01 T00480026  RH  086%=      5-min Rain = 0
KBWS 160615Z 24009KT 05/03 A3014 RMK A01 T00490027  RH  087%=      5-min Rain = 0
KBWS 160620Z 24009KT 05/03 A3014 RMK A01 T00470025  RH  087%=      5-min Rain = 0
KBWS 160625Z 25008KT 04/02 A3014 RMK A01 T00440024  RH  088%=      5-min Rain = 0
KBWS 160630Z 25009KT 04/02 A3014 RMK A01 T00420023  RH  088%=      5-min Rain = 0
KBWS 160635Z 25010KT 04/02 A3013 RMK A01 T00420024  RH  089%=      5-min Rain = 0
KBWS 160640Z 25011KT 05/03 A3013 RMK A01 T00460027  RH  089%=      5-min Rain = 0
KBWS 160645Z 24011KT 05/03 A3013 RMK A01 T00500028  RH  087%=      5-min Rain = 0
KBWS 160650Z 24011KT 05/03 A3013 RMK A01 T00500028  RH  087%=      5-min Rain = 0
KBWS 160655Z 24010KT 05/03 A3013 RMK A01 T00490027  RH  087%=      5-min Rain = 0
KBWS 160700Z 24010KT 05/03 A3013 RMK A01 T00470026  RH  087%=      5-min Rain = 0
KBWS 160705Z 25009KT 05/02 A3013 RMK A01 T00460024  RH  087%=      5-min Rain = 0
KBWS 160710Z 25008KT 04/02 A3013 RMK A01 T00410022  RH  088%=      5-min Rain = 0
KBWS 160715Z 25008KT 04/02 A3012 RMK A01 T00380021  RH  089%=      5-min Rain = 0
KBWS 160720Z 25007KT 04/02 A3012 RMK A01 T00370020  RH  090%=      5-min Rain = 0
KBWS 160725Z 24008KT 04/02 A3012 RMK A01 T00360020  RH  090%=      5-min Rain = 0
KBWS 160730Z 24009KT 04/02 A3012 RMK A01 T00390022  RH  090%=      5-min Rain = 0
KBWS 160735Z 25008KT 04/02 A3012 RMK A01 T00410023  RH  089%=      5-min Rain = 0
KBWS 160740Z 24007KT 04/02 A3012 RMK A01 T00410023  RH  089%=      5-min Rain = 0
KBWS 160745Z 24006KT 04/02 A3012 RMK A01 T00400022  RH  089%=      5-min Rain = 0
KBWS 160750Z 25006KT 04/02 A3012 RMK A01 T00380019  RH  089%=      5-min Rain = 0
KBWS 160755Z 25006KT 03/02 A3012 RMK A01 T00320016  RH  090%=      5-min Rain = 0
KBWS 160800Z 24007KT 03/02 A3012 RMK A01 T00320017  RH  091%=      5-min Rain = 0
KBWS 160805Z 24005KT 03/02 A3012 RMK A01 T00320017  RH  091%=      5-min Rain = 0
KBWS 160810Z 27005KT 03/02 A3012 RMK A01 T00310016  RH  091%=      5-min Rain = 0
KBWS 160815Z 27005KT 03/02 A3013 RMK A01 T00310018  RH  092%=      5-min Rain = 0
KBWS 160820Z 27006KT 03/02 A3013 RMK A01 T00300017  RH  092%=      5-min Rain = 0
KBWS 160825Z 27006KT 03/02 A3012 RMK A01 T00320019  RH  092%=      5-min Rain = 0
KBWS 160830Z 28006KT 03/02 A3012 RMK A01 T00330019  RH  092%=      5-min Rain = 0
KBWS 160835Z 29006KT 03/02 A3013 RMK A01 T00300017  RH  092%=      5-min Rain = 0
KBWS 160840Z 28006KT 03/02 A3013 RMK A01 T00290016  RH  093%=      5-min Rain = 0
KBWS 160845Z 29007KT 03/02 A3013 RMK A01 T00290017  RH  093%=      5-min Rain = 0
KBWS 160850Z 30006KT 03/02 A3013 RMK A01 T00300018  RH  093%=      5-min Rain = 0
KBWS 160855Z 29006KT 03/02 A3013 RMK A01 T00280015  RH  092%=      5-min Rain = 0
KBWS 160900Z 29008KT 03/02 A3013 RMK A01 T00290017  RH  093%=      5-min Rain = 0
KBWS 160905Z 30008KT 03/02 A3013 RMK A01 T00310019  RH  093%=      5-min Rain = 0
KBWS 160910Z 30008KT 03/02 A3013 RMK A01 T00330020  RH  092%=      5-min Rain = 0
KBWS 160915Z 30007KT 04/02 A3013 RMK A01 T00360021  RH  091%=      5-min Rain = 0
KBWS 160920Z 29007KT 04/02 A3013 RMK A01 T00350020  RH  091%=      5-min Rain = 0
KBWS 160925Z 30007KT 03/02 A3013 RMK A01 T00340019  RH  091%=      5-min Rain = 0
KBWS 160930Z 29007KT 03/02 A3013 RMK A01 T00330019  RH  091%=      5-min Rain = 0
KBWS 160935Z 29008KT 03/02 A3013 RMK A01 T00330019  RH  091%=      5-min Rain = 0
KBWS 160940Z 29008KT 03/02 A3013 RMK A01 T00340020  RH  092%=      5-min Rain = 0
KBWS 160945Z 28007KT 04/02 A3013 RMK A01 T00370022  RH  091%=      5-min Rain = 0
KBWS 160950Z 28009KT 04/03 A3013 RMK A01 T00420026  RH  090%=      5-min Rain = 0
KBWS 160955Z 28009KT 04/03 A3013 RMK A01 T00440026  RH  089%=      5-min Rain = 0
KBWS 161000Z 28008KT 05/03 A3013 RMK A01 T00470028  RH  089%=      5-min Rain = 0
KBWS 161005Z 28009KT 05/03 A3013 RMK A01 T00480028  RH  088%=      5-min Rain = 0
KBWS 161010Z 28009KT 05/03 A3013 RMK A01 T00500030  RH  088%=      5-min Rain = 0
KBWS 161015Z 28009KT 05/03 A3013 RMK A01 T00520032  RH  088%=      5-min Rain = 0
KBWS 161020Z 28009KT 05/03 A3013 RMK A01 T00530032  RH  087%=      5-min Rain = 0
KBWS 161025Z 28009KT 05/03 A3013 RMK A01 T00540032  RH  087%=      5-min Rain = 0
KBWS 161030Z 28010KT 06/03 A3013 RMK A01 T00550033  RH  087%=      5-min Rain = 0
KBWS 161035Z 28011KT 06/03 A3013 RMK A01 T00560033  RH  086%=      5-min Rain = 0
KBWS 161040Z 28010KT 06/03 A3013 RMK A01 T00550033  RH  086%=      5-min Rain = 0
KBWS 161045Z 28010KT 05/03 A3013 RMK A01 T00540032  RH  086%=      5-min Rain = 0
KBWS 161050Z 28010KT 05/03 A3013 RMK A01 T00530031  RH  087%=      5-min Rain = 0
KBWS 161055Z 28011KT 05/03 A3013 RMK A01 T00530032  RH  087%=      5-min Rain = 0
KBWS 161100Z 28009KT 06/03 A3012 RMK A01 T00550033  RH  087%=      5-min Rain = 0
KBWS 161105Z 28010KT 06/04 A3012 RMK A01 T00570035  RH  087%=      5-min Rain = 0
KBWS 161110Z 28009KT 06/03 A3012 RMK A01 T00570034  RH  086%=      5-min Rain = 0
KBWS 161115Z 27009KT 06/03 A3012 RMK A01 T00550033  RH  087%=      5-min Rain = 0
KBWS 161120Z 27009KT 05/03 A3012 RMK A01 T00540032  RH  087%=      5-min Rain = 0
KBWS 161125Z 27008KT 05/03 A3012 RMK A01 T00540032  RH  087%=      5-min Rain = 0
KBWS 161130Z 27008KT 05/03 A3012 RMK A01 T00540032  RH  087%=      5-min Rain = 0
KBWS 161135Z 27008KT 05/03 A3011 RMK A01 T00530032  RH  087%=      5-min Rain = 0
KBWS 161140Z 27009KT 06/03 A3011 RMK A01 T00560033  RH  087%=      5-min Rain = 0
KBWS 161145Z 27010KT 06/03 A3011 RMK A01 T00580034  RH  086%=      5-min Rain = 0
KBWS 161150Z 27009KT 06/03 A3011 RMK A01 T00590034  RH  085%=      5-min Rain = 0
KBWS 161155Z 27008KT 06/03 A3011 RMK A01 T00580034  RH  085%=      5-min Rain = 0
KBWS 161200Z 27008KT 06/03 A3011 RMK A01 T00590034  RH  085%=      5-min Rain = 0
KBWS 161205Z 26008KT 06/03 A3011 RMK A01 T00580033  RH  085%=      5-min Rain = 0
KBWS 161210Z 26009KT 06/03 A3011 RMK A01 T00570032  RH  085%=      5-min Rain = 0
KBWS 161215Z 28007KT 06/03 A3011 RMK A01 T00550031  RH  086%=      5-min Rain = 0
KBWS 161220Z 27008KT 05/03 A3011 RMK A01 T00530031  RH  087%=      5-min Rain = 0
KBWS 161225Z 27007KT 05/03 A3011 RMK A01 T00520030  RH  087%=      5-min Rain = 0
KBWS 161230Z 28008KT 05/03 A3011 RMK A01 T00500029  RH  087%=      5-min Rain = 0
KBWS 161235Z 27007KT 05/03 A3011 RMK A01 T00500029  RH  087%=      5-min Rain = 0
KBWS 161240Z 27006KT 05/03 A3011 RMK A01 T00500028  RH  087%=      5-min Rain = 0
KBWS 161245Z 27007KT 05/03 A3012 RMK A01 T00480027  RH  087%=      5-min Rain = 0
KBWS 161250Z 27007KT 05/03 A3012 RMK A01 T00480027  RH  088%=      5-min Rain = 0
KBWS 161255Z 27006KT 05/03 A3012 RMK A01 T00470026  RH  087%=      5-min Rain = 0
KBWS 161300Z 26006KT 04/03 A3012 RMK A01 T00440025  RH  088%=      5-min Rain = 0
KBWS 161305Z 26006KT 04/02 A3012 RMK A01 T00420024  RH  089%=      5-min Rain = 0
KBWS 161310Z 26007KT 04/02 A3012 RMK A01 T00390022  RH  090%=      5-min Rain = 0
KBWS 161315Z 25007KT 04/02 A3012 RMK A01 T00370022  RH  090%=      5-min Rain = 0
KBWS 161320Z 25008KT 04/02 A3012 RMK A01 T00390024  RH  091%=      5-min Rain = 0
KBWS 161325Z 25009KT 04/02 A3012 RMK A01 T00400024  RH  090%=      5-min Rain = 0
KBWS 161330Z 25009KT 04/03 A3012 RMK A01 T00420025  RH  090%=      5-min Rain = 0
KBWS 161335Z 25009KT 04/02 A3012 RMK A01 T00420024  RH  089%=      5-min Rain = 0
KBWS 161340Z 25009KT 04/03 A3012 RMK A01 T00430026  RH  090%=      5-min Rain = 0
KBWS 161345Z 25010KT 05/03 A3012 RMK A01 T00450027  RH  089%=      5-min Rain = 0
KBWS 161350Z 25009KT 05/03 A3013 RMK A01 T00450028  RH  089%=      5-min Rain = 0
KBWS 161355Z 25009KT 05/03 A3013 RMK A01 T00480029  RH  089%=      5-min Rain = 0
KBWS 161400Z 25008KT 05/03 A3013 RMK A01 T00470028  RH  089%=      5-min Rain = 0
KBWS 161405Z 26006KT 05/03 A3013 RMK A01 T00450027  RH  089%=      5-min Rain = 0
KBWS 161410Z 26006KT 05/03 A3013 RMK A01 T00450027  RH  089%=      5-min Rain = 0
KBWS 161415Z 25006KT 05/03 A3013 RMK A01 T00450027  RH  089%=      5-min Rain = 0
KBWS 161420Z 25007KT 05/03 A3013 RMK A01 T00470028  RH  089%=      5-min Rain = 0
KBWS 161425Z 25007KT 05/03 A3013 RMK A01 T00490028  RH  088%=      5-min Rain = 0
KBWS 161430Z 24008KT 05/03 A3013 RMK A01 T00510028  RH  086%=      5-min Rain = 0
KBWS 161435Z 25007KT 05/03 A3013 RMK A01 T00530029  RH  085%=      5-min Rain = 0
KBWS 161440Z 25007KT 06/03 A3013 RMK A01 T00560031  RH  085%=      5-min Rain = 0
KBWS 161445Z 26007KT 06/03 A3013 RMK A01 T00610032  RH  083%=      5-min Rain = 0
KBWS 161450Z 25008KT 07/03 A3013 RMK A01 T00660033  RH  080%=      5-min Rain = 0
KBWS 161455Z 25008KT 07/03 A3013 RMK A01 T00670033  RH  080%=      5-min Rain = 0
KBWS 161500Z 24007KT 07/04 A3014 RMK A01 T00730036  RH  078%=      5-min Rain = 0
KBWS 161505Z 25006KT 08/04 A3014 RMK A01 T00750036  RH  077%=      5-min Rain = 0
KBWS 161510Z 26005KT 08/04 A3014 RMK A01 T00780038  RH  077%=      5-min Rain = 0
KBWS 161515Z 26005KT 08/04 A3014 RMK A01 T00810039  RH  076%=      5-min Rain = 0
KBWS 161520Z 25005KT 08/04 A3014 RMK A01 T00840042  RH  076%=      5-min Rain = 0
KBWS 161525Z 23004KT 09/04 A3014 RMK A01 T00860043  RH  075%=      5-min Rain = 0
KBWS 161530Z 25005KT 09/04 A3014 RMK A01 T00890044  RH  074%=      5-min Rain = 0
KBWS 161535Z 25005KT 09/04 A3014 RMK A01 T00930044  RH  073%=      5-min Rain = 0
KBWS 161540Z 27005KT 10/05 A3014 RMK A01 T00960045  RH  072%=      5-min Rain = 0
KBWS 161545Z 27005KT 10/05 A3014 RMK A01 T00980047  RH  071%=      5-min Rain = 0
KBWS 161550Z 28006KT 10/05 A3014 RMK A01 T01010046  RH  069%=      5-min Rain = 0
KBWS 161555Z 27006KT 10/05 A3014 RMK A01 T01020045  RH  069%=      5-min Rain = 0
KBWS 161600Z 28007KT 10/05 A3014 RMK A01 T01040045  RH  068%=      5-min Rain = 0
KBWS 161605Z 27007KT 11/05 A3015 RMK A01 T01050046  RH  068%=      5-min Rain = 0
KBWS 161610Z 27006KT 11/05 A3014 RMK A01 T01100049  RH  067%=      5-min Rain = 0
KBWS 161615Z 28006KT 11/05 A3014 RMK A01 T01130051  RH  066%=      5-min Rain = 0
KBWS 161620Z 27008KT 12/05 A3014 RMK A01 T01190052  RH  064%=      5-min Rain = 0
KBWS 161625Z 26009KT 13/05 A3014 RMK A01 T01250051  RH  061%=      5-min Rain = 0
KBWS 161630Z 26010KT 13/05 A3015 RMK A01 T01270052  RH  061%=      5-min Rain = 0
KBWS 161635Z 26008KT 13/06 A3015 RMK A01 T01330055  RH  060%=      5-min Rain = 0
KBWS 161640Z 25009KT 14/06 A3015 RMK A01 T01380056  RH  058%=      5-min Rain = 0
KBWS 161645Z 25009KT 14/06 A3015 RMK A01 T01420055  RH  057%=      5-min Rain = 0
KBWS 161650Z 24009KT 15/06 A3015 RMK A01 T01470057  RH  055%=      5-min Rain = 0
KBWS 161655Z 25010KT 15/06 A3015 RMK A01 T01520057  RH  054%=      5-min Rain = 0
KBWS 161700Z 24011KT 15/06 A3015 RMK A01 T01540055  RH  052%=      5-min Rain = 0
KBWS 161705Z 24011KT 16/05 A3015 RMK A01 T01550054  RH  052%=      5-min Rain = 0
KBWS 161710Z 24010KT 16/06 A3015 RMK A01 T01620058  RH  051%=      5-min Rain = 0
KBWS 161715Z 24010KT 17/06 A3015 RMK A01 T01660058  RH  050%=      5-min Rain = 0
KBWS 161720Z 23012KT 17/06 A3014 RMK A01 T01670056  RH  049%=      5-min Rain = 0
KBWS 161725Z 23011KT 17/06 A3014 RMK A01 T01690057  RH  048%=      5-min Rain = 0
KBWS 161730Z 23012KT 17/05 A3014 RMK A01 T01690053  RH  047%=      5-min Rain = 0
KBWS 161735Z 23013KT 17/05 A3014 RMK A01 T01660052  RH  047%=      5-min Rain = 0
KBWS 161740Z 23011KT 17/05 A3014 RMK A01 T01690052  RH  047%=      5-min Rain = 0
KBWS 161745Z 23012G17KT 17/05 A3014 RMK A01 T01690048  RH  045%=      5-min Rain = 0
KBWS 161750Z 23012KT 17/05 A3014 RMK A01 T01740048  RH  044%=      5-min Rain = 0
KBWS 161755Z 24014KT 18/04 A3014 RMK A01 T01770042  RH  041%=      5-min Rain = 0
KBWS 161800Z 24014G19KT 17/04 A3014 RMK A01 T01740040  RH  041%=      5-min Rain = 0
KBWS 161805Z 24014KT 17/04 A3013 RMK A01 T01720040  RH  042%=      5-min Rain = 0
KBWS 161810Z 24013KT 17/04 A3013 RMK A01 T01720040  RH  042%=      5-min Rain = 0
KBWS 161815Z 24013KT 18/04 A3013 RMK A01 T01750042  RH  042%=      5-min Rain = 0
KBWS 161820Z 24013G18KT 17/04 A3012 RMK A01 T01740041  RH  042%=      5-min Rain = 0
KBWS 161825Z 24014G19KT 17/04 A3012 RMK A01 T01710040  RH  042%=      5-min Rain = 0
KBWS 161830Z 24012KT 17/04 A3012 RMK A01 T01740043  RH  042%=      5-min Rain = 0
KBWS 161835Z 24011KT 18/05 A3011 RMK A01 T01810047  RH  042%=      5-min Rain = 0
KBWS 161840Z 24012KT 18/05 A3011 RMK A01 T01810045  RH  041%=      5-min Rain = 0
KBWS 161845Z 25011KT 18/05 A301 RMK A01 T01820045  RH  041%=      5-min Rain = 0
KBWS 161850Z 24013KT 18/05 A301 RMK A01 T01810046  RH  041%=      5-min Rain = 0
KBWS 161855Z 25012KT 19/05 A301 RMK A01 T01850049  RH  041%=      5-min Rain = 0
KBWS 161900Z 24012G17KT 19/05 A3009 RMK A01 T01900050  RH  040%=      5-min Rain = 0
KBWS 161905Z 25012G18KT 20/05 A3008 RMK A01 T01950053  RH  040%=      5-min Rain = 0
KBWS 161910Z 24012G19KT 20/05 A3008 RMK A01 T01970051  RH  039%=      5-min Rain = 0
KBWS 161915Z 25014KT 19/05 A3007 RMK A01 T01940048  RH  039%=      5-min Rain = 0
KBWS 161920Z 24013G19KT 20/05 A3007 RMK A01 T01960052  RH  039%=      5-min Rain = 0
KBWS 161925Z 22013KT 20/05 A3006 RMK A01 T01950053  RH  040%=      5-min Rain = 0
KBWS 161930Z 23013G20KT 20/05 A3006 RMK A01 T01980049  RH  038%=      5-min Rain = 0
KBWS 161935Z 22011G18KT 20/05 A3005 RMK A01 T01990052  RH  038%=      5-min Rain = 0
KBWS 161940Z 26013G20KT 21/03 A3005 RMK A01 T02060033  RH  032%=      5-min Rain = 0
KBWS 161945Z 22015G20KT 20/04 A3004 RMK A01 T02040043  RH  035%=      5-min Rain = 0
KBWS 161950Z 23014G23KT 21/04 A3004 RMK A01 T02050043  RH  035%=      5-min Rain = 0
KBWS 161955Z 25017KT 21/02 A3004 RMK A01 T02060022  RH  030%=      5-min Rain = 0
KBWS 162000Z 27017G26KT 20/01 A3004 RMK A01 T02020007  RH  028%=      5-min Rain = 0
KBWS 162005Z 26015G22KT 21/01 A3004 RMK A01 T02050013  RH  028%=      5-min Rain = 0
KBWS 162010Z 27014G20KT 21/02 A3004 RMK A01 T02090017  RH  028%=      5-min Rain = 0
KBWS 162015Z 27016G21KT 20/01 A3003 RMK A01 T02040014  RH  029%=      5-min Rain = 0
KBWS 162020Z 27014KT 21/02 A3003 RMK A01 T02060018  RH  029%=      5-min Rain = 0
KBWS 162025Z 25017G22KT 21/01 A3003 RMK A01 T02070012  RH  027%=      5-min Rain = 0
KBWS 162030Z 26016G21KT 21/02 A3003 RMK A01 T02050015  RH  029%=      5-min Rain = 0
KBWS 162035Z 26015G22KT 21/02 A3003 RMK A01 T02070016  RH  028%=      5-min Rain = 0
KBWS 162040Z 26016G21KT 20/02 A3003 RMK A01 T02030015  RH  029%=      5-min Rain = 0
KBWS 162045Z 26015KT 20/02 A3004 RMK A01 T02040016  RH  029%=      5-min Rain = 0
KBWS 162050Z 27015G22KT 20/02 A3004 RMK A01 T02030016  RH  029%=      5-min Rain = 0
KBWS 162055Z 26013G18KT 21/02 A3004 RMK A01 T02060022  RH  030%=      5-min Rain = 0
KBWS 162100Z 26016G21KT 21/02 A3003 RMK A01 T02100020  RH  029%=      5-min Rain = 0
KBWS 162105Z 27014KT 21/02 A3003 RMK A01 T02080016  RH  028%=      5-min Rain = 0
KBWS 162110Z 26018G25KT 20/01 A3003 RMK A01 T02020014  RH  029%=      5-min Rain = 0
KBWS 162115Z 27016G21KT 20/02 A3003 RMK A01 T02000015  RH  029%=      5-min Rain = 0
KBWS 162120Z 26016G21KT 20/02 A3003 RMK A01 T01990015  RH  030%=      5-min Rain = 0
KBWS 162125Z 26016G21KT 20/01 A3003 RMK A01 T02010011  RH  029%=      5-min Rain = 0
KBWS 162130Z 27016G21KT 20/01 A3003 RMK A01 T01980006  RH  028%=      5-min Rain = 0
KBWS 162135Z 27016G22KT 20/01 A3003 RMK A01 T01990009  RH  028%=      5-min Rain = 0
KBWS 162140Z 26017G24KT 20/01 A3003 RMK A01 T02000009  RH  028%=      5-min Rain = 0
KBWS 162145Z 27017G22KT 20/01 A3003 RMK A01 T01990006  RH  028%=      5-min Rain = 0
KBWS 162150Z 27014G19KT 20/00 A3003 RMK A01 T01990003  RH  027%=      5-min Rain = 0
KBWS 162155Z 27016KT 20/00 A3003 RMK A01 T01960002  RH  027%=      5-min Rain = 0
KBWS 162200Z 27014G19KT 19/00 A3003 RMK A01 T01920000  RH  028%=      5-min Rain = 0
KBWS 162205Z 27013G20KT 19/00 A3003 RMK A01 T019200-0  RH  028%=      5-min Rain = 0
KBWS 162210Z 27014KT 19/M00 A3003 RMK A01 T01901002  RH  028%=      5-min Rain = 0
KBWS 162215Z 27011G16KT 19/00 A3003 RMK A01 T01900003  RH  029%=      5-min Rain = 0
KBWS 162220Z 27011G16KT 19/01 A3003 RMK A01 T01880007  RH  030%=      5-min Rain = 0
KBWS 162225Z 27012KT 19/01 A3004 RMK A01 T01850006  RH  030%=      5-min Rain = 0
KBWS 162230Z 26012KT 18/01 A3003 RMK A01 T01840006  RH  031%=      5-min Rain = 0
KBWS 162235Z 26013KT 18/00 A3003 RMK A01 T01820003  RH  030%=      5-min Rain = 0
KBWS 162240Z 26012KT 18/00 A3003 RMK A01 T01820001  RH  030%=      5-min Rain = 0
KBWS 162245Z 26011KT 18/M00 A3003 RMK A01 T01821001  RH  029%=      5-min Rain = 0
KBWS 162250Z 26012KT 18/00 A3003 RMK A01 T018200-0  RH  030%=      5-min Rain = 0
KBWS 162255Z 26009KT 18/00 A3003 RMK A01 T01810000  RH  030%=      5-min Rain = 0
KBWS 162300Z 26010KT 18/00 A3003 RMK A01 T01780001  RH  030%=      5-min Rain = 0
KBWS 162305Z 26011KT 18/M00 A3003 RMK A01 T01801002  RH  030%=      5-min Rain = 0
KBWS 162310Z 26010KT 18/M00 A3003 RMK A01 T01821001  RH  029%=      5-min Rain = 0
KBWS 162315Z 26011KT 18/M00 A3004 RMK A01 T01811002  RH  029%=      5-min Rain = 0
KBWS 162320Z 26011KT 18/M00 A3004 RMK A01 T01791004  RH  029%=      5-min Rain = 0
KBWS 162325Z 26012KT 18/M01 A3004 RMK A01 T01751008  RH  029%=      5-min Rain = 0
KBWS 162330Z 26011KT 17/M01 A3004 RMK A01 T01721010  RH  029%=      5-min Rain = 0
KBWS 162335Z 25010KT 17/M01 A3004 RMK A01 T01681009  RH  030%=      5-min Rain = 0
KBWS 162340Z 25010KT 16/M01 A3004 RMK A01 T01641008  RH  031%=      5-min Rain = 0
KBWS 162345Z 25009KT 16/M01 A3004 RMK A01 T01621008  RH  032%=      5-min Rain = 0
KBWS 162350Z 25009KT 16/M01 A3004 RMK A01 T01571006  RH  033%=      5-min Rain = 0
KBWS 162355Z 25009KT 15/M01 A3004 RMK A01 T01541005  RH  034%=      5-min Rain = 0
KBWS 170000Z 25009KT 15/M00 A3005 RMK A01 T01521003  RH  035%=      5-min Rain = 0
KBWS 170005Z 25010KT 15/00 A3005 RMK A01 T01510000  RH  036%=      5-min Rain = 0
KBWS 170010Z 25010KT 15/00 A3005 RMK A01 T01480004  RH  038%=      5-min Rain = 0
KBWS 170015Z 24010KT 15/01 A3005 RMK A01 T01460007  RH  039%=      5-min Rain = 0
KBWS 170020Z 24011KT 15/01 A3005 RMK A01 T01500009  RH  039%=      5-min Rain = 0
KBWS 170025Z 24011KT 15/01 A3005 RMK A01 T01500010  RH  039%=      5-min Rain = 0
KBWS 170030Z 25010KT 15/01 A3005 RMK A01 T01460011  RH  040%=      5-min Rain = 0
KBWS 170035Z 25010KT 14/01 A3006 RMK A01 T01440011  RH  041%=      5-min Rain = 0
KBWS 170040Z 25009KT 14/01 A3006 RMK A01 T01420012  RH  042%=      5-min Rain = 0
KBWS 170045Z 25009KT 14/01 A3006 RMK A01 T01390013  RH  043%=      5-min Rain = 0
KBWS 170050Z 25010KT 14/01 A3006 RMK A01 T01380013  RH  043%=      5-min Rain = 0
KBWS 170055Z 25010KT 14/01 A3006 RMK A01 T01390014  RH  043%=      5-min Rain = 0
KBWS 170100Z 24011KT 14/02 A3006 RMK A01 T01390015  RH  043%=      5-min Rain = 0
KBWS 170105Z 24011KT 14/02 A3006 RMK A01 T01430015  RH  042%=      5-min Rain = 0
KBWS 170110Z 24011KT 14/02 A3006 RMK A01 T01410015  RH  043%=      5-min Rain = 0
KBWS 170115Z 24012KT 14/01 A3006 RMK A01 T01380014  RH  044%=      5-min Rain = 0
KBWS 170120Z 24012KT 14/01 A3006 RMK A01 T01350014  RH  044%=      5-min Rain = 0
KBWS 170125Z 24012KT 13/01 A3006 RMK A01 T01330014  RH  045%=      5-min Rain = 0
KBWS 170130Z 24012KT 13/01 A3006 RMK A01 T01290013  RH  046%=      5-min Rain = 0
KBWS 170135Z 24012KT 13/01 A3006 RMK A01 T01290013  RH  046%=      5-min Rain = 0
KBWS 170140Z 24011KT 13/01 A3006 RMK A01 T01300013  RH  045%=      5-min Rain = 0
KBWS 170145Z 24011KT 13/01 A3006 RMK A01 T01300013  RH  045%=      5-min Rain = 0
KBWS 170150Z 25011KT 13/01 A3007 RMK A01 T01300012  RH  045%=      5-min Rain = 0
KBWS 170155Z 25011KT 13/01 A3007 RMK A01 T01290012  RH  045%=      5-min Rain = 0
KBWS 170200Z 25012KT 12/01 A3007 RMK A01 T01240012  RH  047%=      5-min Rain = 0
KBWS 170205Z 25013KT 12/01 A3007 RMK A01 T01210012  RH  048%=      5-min Rain = 0
KBWS 170210Z 25013KT 12/01 A3007 RMK A01 T01200010  RH  048%=      5-min Rain = 0
KBWS 170215Z 25013KT 12/01 A3008 RMK A01 T01210010  RH  047%=      5-min Rain = 0
KBWS 170220Z 25013KT 12/01 A3008 RMK A01 T01190009  RH  047%=      5-min Rain = 0
KBWS 170225Z 25013KT 12/01 A3008 RMK A01 T01190009  RH  048%=      5-min Rain = 0
KBWS 170230Z 25014KT 12/01 A3008 RMK A01 T01190009  RH  047%=      5-min Rain = 0
KBWS 170235Z 25015KT 12/01 A3008 RMK A01 T01190009  RH  047%=      5-min Rain = 0
KBWS 170240Z 26014KT 12/01 A3009 RMK A01 T01200008  RH  047%=      5-min Rain = 0
KBWS 170245Z 26013G18KT 12/01 A3009 RMK A01 T01180008  RH  047%=      5-min Rain = 0
KBWS 170250Z 26013KT 12/01 A3009 RMK A01 T01180008  RH  047%=      5-min Rain = 0
KBWS 170255Z 26012KT 12/01 A3009 RMK A01 T01170007  RH  047%=      5-min Rain = 0
KBWS 170300Z 26011KT 12/01 A3009 RMK A01 T01150007  RH  048%=      5-min Rain = 0
KBWS 170305Z 27010KT 11/01 A3009 RMK A01 T01130007  RH  049%=      5-min Rain = 0
KBWS 170310Z 27008KT 11/01 A301 RMK A01 T01090007  RH  050%=      5-min Rain = 0
KBWS 170315Z 28008KT 10/01 A301 RMK A01 T01040006  RH  051%=      5-min Rain = 0
KBWS 170320Z 29006KT 10/01 A301 RMK A01 T00980006  RH  053%=      5-min Rain = 0
KBWS 170325Z 28007KT 09/01 A301 RMK A01 T00930005  RH  055%=      5-min Rain = 0
KBWS 170330Z 28008KT 09/01 A301 RMK A01 T00940006  RH  055%=      5-min Rain = 0
KBWS 170335Z 29007KT 09/00 A301 RMK A01 T00890004  RH  056%=      5-min Rain = 0
KBWS 170340Z 28007KT 09/00 A301 RMK A01 T00860003  RH  057%=      5-min Rain = 0
KBWS 170345Z 28008KT 08/00 A301 RMK A01 T00830003  RH  058%=      5-min Rain = 0
KBWS 170350Z 27009KT 09/00 A301 RMK A01 T00850004  RH  058%=      5-min Rain = 0
KBWS 170355Z 28009KT 09/00 A301 RMK A01 T00860003  RH  057%=      5-min Rain = 0
KBWS 170400Z 27009G14KT 09/00 A301 RMK A01 T00880003  RH  056%=      5-min Rain = 0
KBWS 170405Z 28010KT 09/00 A301 RMK A01 T00870001  RH  055%=      5-min Rain = 0
KBWS 170410Z 28010KT 09/M00 A301 RMK A01 T00921002  RH  052%=      5-min Rain = 0
KBWS 170415Z 29009KT 09/M00 A3011 RMK A01 T00901003  RH  052%=      5-min Rain = 0
KBWS 170420Z 28009KT 09/M00 A3011 RMK A01 T00861004  RH  054%=      5-min Rain = 0
KBWS 170425Z 28008KT 08/M00 A3011 RMK A01 T00791004  RH  056%=      5-min Rain = 0
KBWS 170430Z 29008KT 07/M01 A3011 RMK A01 T00741005  RH  058%=      5-min Rain = 0
KBWS 170435Z 28010KT 08/M01 A3011 RMK A01 T00761007  RH  056%=      5-min Rain = 0
KBWS 170440Z 28009KT 08/M01 A3011 RMK A01 T00801008  RH  054%=      5-min Rain = 0
KBWS 170445Z 28010KT 08/M01 A3011 RMK A01 T00831009  RH  053%=      5-min Rain = 0
KBWS 170450Z 28010KT 08/M01 A3011 RMK A01 T00821009  RH  053%=      5-min Rain = 0
KBWS 170455Z 30011KT 08/M01 A3012 RMK A01 T00841010  RH  052%=      5-min Rain = 0
KBWS 170500Z 31009KT 08/M01 A3012 RMK A01 T00791010  RH  054%=      5-min Rain = 0
KBWS 170505Z 31009KT 08/M01 A3012 RMK A01 T00771011  RH  054%=      5-min Rain = 0
KBWS 170510Z 33009KT 08/M01 A3012 RMK A01 T00771011  RH  054%=      5-min Rain = 0
KBWS 170515Z 32009KT 08/M01 A3013 RMK A01 T00761011  RH  055%=      5-min Rain = 0
KBWS 170520Z 30010KT 07/M01 A3013 RMK A01 T00711011  RH  056%=      5-min Rain = 0
KBWS 170525Z 30013KT 08/M01 A3013 RMK A01 T00801009  RH  054%=      5-min Rain = 0
KBWS 170530Z 29015KT 09/M01 A3012 RMK A01 T00881009  RH  051%=      5-min Rain = 0
KBWS 170535Z 29015KT 09/M01 A3012 RMK A01 T00901009  RH  050%=      5-min Rain = 0
KBWS 170540Z 29014KT 09/M01 A3013 RMK A01 T00891009  RH  051%=      5-min Rain = 0
KBWS 170545Z 29013KT 09/M01 A3013 RMK A01 T00881008  RH  051%=      5-min Rain = 0
KBWS 170550Z 29013KT 09/M01 A3013 RMK A01 T00871008  RH  052%=      5-min Rain = 0
KBWS 170555Z 29013KT 09/M01 A3013 RMK A01 T00881007  RH  052%=      5-min Rain = 0

Page generated in 0.0092 seconds.